Oak Grove, Kentucky
Current Conditions -  °F | °C
As of 6:58 PM on Friday 28 Nov 2014 (Local Time) from KHOP Reporting Station
Clear Clear  
Wind Chill: 37°   Ceiling: Unl
Heat Index: 43°   Visibility: 10mi
Dew Point: 24°   Wind: 12mph
Humidity: 48%   Direction: 170°S
Pressure: 30.11"   Gusts: NA
Location:  36.67°N, 87.44°W
Report Text: KHOP 290058Z AUTO 17010KT 10SM CLR 06/M04 A3011 RMK AO2 SLP202 T00621042 $
Loading
Personal Weather Stations






























Interactive Weather Map New forecast layout! Learn more

10-Day Weather Forecast

Advertisements
Track Severe Weather on mobile